Terminal Aerodrome Forecast
Issued by NWS Upton, NY

Home | Current Version | Previous Version | Text Only | Print | Product List | Glossary On
Versions: 1 2 3 4 5 6 7 8 9 10 11 12 13 14 15 16 17 18 19 20 21 22 23 24 25 26 27 28 29 30 31
000
FTUS41 KOKX 300236 AAA
TAFEWR
TAF AMD
KEWR 300236Z 3003/3106 17006KT P6SM SCT010 BKN040 OVC100
      TEMPO 3003/3005 6SM -SHRA BR BKN010
     FM300500 17006KT 3SM SHRA BR SCT006 BKN012
     FM300700 20006KT 2SM SHRA BR BKN006 OVC012
      TEMPO 3009/3013 1SM +SHRA BR
     FM301300 23006KT 2SM SHRA BR BKN006 OVC012
     FM301800 22007KT 3SM SHRA BR SCT006 OVC015
     FM302300 20006KT 5SM BR SCT006 BKN010=

USA.gov is the U.S. government's official web portal to all federal, state and local government web resources and services.